Time;durP1;ratioP1;P1;durP2;ratioP2;P2;SDS_P1;SDS_P2;PMS_P1;PMS_P2;Temp;Humidity;BMP_temperature;BMP_pressure;BME280_temperature;BME280_humidity;BME280_pressure;Samples;Min_cycle;Max_cycle;Signal;HPM_P1;HPM_P2
2023/06/23 00:00:00;;;;;;;7.97;2.35;;;;;;;17.87;100.00;95943.00;1042880;28;20021;-73
2023/06/23 00:00:32;;;;;;;5.57;2.20;;;;;;;17.83;100.00;95942.03;1038169;28;20025;-73
2023/06/23 00:01:02;;;;;;;5.60;1.70;;;;;;;17.84;100.00;95932.97;1041503;28;20040;-73
2023/06/23 00:01:32;;;;;;;1.92;1.67;;;;;;;17.84;100.00;95943.59;1039595;28;20403;-74
2023/06/23 00:02:05;;;;;;;6.97;1.77;;;;;;;17.81;100.00;95934.41;1047379;28;20028;-73
2023/06/23 00:02:35;;;;;;;3.35;1.65;;;;;;;17.81;100.00;95933.63;1046407;28;20037;-73
2023/06/23 00:03:06;;;;;;;4.13;1.80;;;;;;;17.79;100.00;95935.78;1043038;28;20037;-73
2023/06/23 00:03:38;;;;;;;2.53;1.20;;;;;;;17.73;100.00;95926.34;1042907;28;20418;-74
2023/06/23 00:04:09;;;;;;;5.88;1.92;;;;;;;17.77;100.00;95936.09;1043202;28;20036;-73
2023/06/23 00:04:39;;;;;;;2.60;1.60;;;;;;;17.78;100.00;95936.88;1046948;28;20414;-73
2023/06/23 00:05:11;;;;;;;4.45;1.70;;;;;;;17.80;100.00;95937.34;1038905;28;20472;-72
2023/06/23 00:05:41;;;;;;;3.78;1.95;;;;;;;17.82;100.00;95935.19;1042760;28;20021;-73
2023/06/23 00:06:14;;;;;;;6.57;2.00;;;;;;;17.76;100.00;95936.34;1042807;28;20028;-72
2023/06/23 00:06:45;;;;;;;3.90;1.63;;;;;;;17.77;100.00;95932.63;1035202;28;20030;-73
2023/06/23 00:07:15;;;;;;;1.92;1.63;;;;;;;17.76;100.00;95926.53;1034969;28;20395;-73
2023/06/23 00:07:46;;;;;;;2.20;1.60;;;;;;;17.77;100.00;95930.78;1037456;28;20021;-73
2023/06/23 00:08:17;;;;;;;2.05;1.63;;;;;;;17.77;100.00;95932.63;1039450;28;20018;-74
2023/06/23 00:08:47;;;;;;;8.18;1.60;;;;;;;17.78;100.00;95942.97;1038689;28;20040;-72
2023/06/23 00:09:18;;;;;;;3.80;1.75;;;;;;;17.79;100.00;95941.09;1040283;28;20040;-73
2023/06/23 00:09:48;;;;;;;1.80;1.50;;;;;;;17.77;100.00;95945.91;1045238;28;20040;-73
2023/06/23 00:10:19;;;;;;;2.55;1.40;;;;;;;17.76;100.00;95941.66;1046934;28;20047;-73
2023/06/23 00:10:50;;;;;;;2.20;1.65;;;;;;;17.73;100.00;95943.03;1050789;28;20099;-72
2023/06/23 00:11:21;;;;;;;2.90;1.70;;;;;;;17.75;100.00;95940.09;1041876;28;20024;-73
2023/06/23 00:11:51;;;;;;;3.60;1.52;;;;;;;17.74;100.00;95939.31;1042604;28;20523;-73
2023/06/23 00:12:24;;;;;;;6.05;1.70;;;;;;;17.74;100.00;95938.50;1046713;28;20087;-73
2023/06/23 00:12:54;;;;;;;2.72;1.55;;;;;;;17.73;100.00;95932.44;1045282;28;20020;-72
2023/06/23 00:13:26;;;;;;;2.63;1.52;;;;;;;17.74;100.00;95941.97;1034432;28;20488;-74
2023/06/23 00:13:57;;;;;;;2.30;1.40;;;;;;;17.73;100.00;95939.63;1030543;28;20452;-73
2023/06/23 00:14:27;;;;;;;4.40;2.00;;;;;;;17.73;100.00;95936.97;1034673;28;20088;-73
2023/06/23 00:14:58;;;;;;;2.63;1.70;;;;;;;17.73;100.00;95936.97;1034765;28;20029;-73
2023/06/23 00:15:28;;;;;;;2.53;1.20;;;;;;;17.72;100.00;95938.84;1034481;28;20149;-71
2023/06/23 00:15:58;;;;;;;3.67;1.77;;;;;;;17.72;100.00;95938.06;1034554;28;20077;-71
2023/06/23 00:16:29;;;;;;;1.83;1.50;;;;;;;17.62;100.00;95915.19;1030591;28;20400;-73
2023/06/23 00:16:59;;;;;;;10.57;2.13;;;;;;;17.73;100.00;95939.63;1034697;28;20034;-71
2023/06/23 00:17:30;;;;;;;5.30;1.92;;;;;;;17.65;100.00;95926.00;1034380;28;20405;-73
2023/06/23 00:18:01;;;;;;;2.13;1.75;;;;;;;17.67;100.00;95931.78;1033523;28;20108;-74
2023/06/23 00:18:35;;;;;;;5.07;2.00;;;;;;;17.67;100.00;95933.63;1041687;28;20067;-73
2023/06/23 00:19:06;;;;;;;7.35;1.80;;;;;;;17.65;100.00;95931.28;1046819;28;20032;-73
2023/06/23 00:19:38;;;;;;;6.43;1.85;;;;;;;17.63;100.00;95930.03;1043238;28;20029;-74
2023/06/23 00:20:10;;;;;;;4.43;1.80;;;;;;;17.64;100.00;95935.03;1038441;28;20025;-72
2023/06/23 00:20:41;;;;;;;2.55;1.70;;;;;;;17.67;100.00;95939.75;1042581;28;20523;-72
2023/06/23 00:21:12;;;;;;;3.58;1.83;;;;;;;17.67;100.00;95931.78;1042796;28;20021;-73
2023/06/23 00:21:44;;;;;;;4.57;1.73;;;;;;;17.61;100.00;95919.72;1043608;28;20035;-74
2023/06/23 00:22:15;;;;;;;6.60;2.28;;;;;;;17.66;100.00;95924.88;1046931;28;20403;-73
2023/06/23 00:22:45;;;;;;;2.08;1.40;;;;;;;17.66;100.00;95929.41;1050975;28;20558;-74
2023/06/23 00:23:16;;;;;;;2.88;1.95;;;;;;;17.67;100.00;95934.44;1041987;28;20013;-73
2023/06/23 00:23:46;;;;;;;3.67;1.77;;;;;;;17.66;100.00;95934.72;1034827;28;20037;-73
2023/06/23 00:24:17;;;;;;;3.05;1.60;;;;;;;17.63;100.00;95920.19;1030583;28;20056;-72
2023/06/23 00:24:48;;;;;;;2.42;1.50;;;;;;;17.64;100.00;95935.03;1034735;28;20025;-74
2023/06/23 00:25:18;;;;;;;3.22;1.80;;;;;;;17.62;100.00;95929.25;1042790;28;20036;-71
2023/06/23 00:25:49;;;;;;;3.75;1.60;;;;;;;17.64;100.00;95928.97;1038547;28;20038;-72
2023/06/23 00:26:19;;;;;;;5.75;1.90;;;;;;;17.63;100.00;95927.38;1042851;28;20029;-72
2023/06/23 00:26:50;;;;;;;2.65;1.60;;;;;;;17.61;100.00;95925.03;1046592;28;20485;-73
2023/06/23 00:27:21;;;;;;;3.60;1.60;;;;;;;17.63;100.00;95933.47;1038671;28;20129;-73
2023/06/23 00:27:51;;;;;;;4.32;1.75;;;;;;;17.61;100.00;95930.34;1030331;28;20045;-72
2023/06/23 00:28:21;;;;;;;4.00;1.58;;;;;;;17.59;100.00;95915.78;1039218;28;20029;-73
2023/06/23 00:28:52;;;;;;;3.80;1.40;;;;;;;17.63;100.00;95922.84;1042783;28;20477;-73
2023/06/23 00:29:23;;;;;;;4.60;1.90;;;;;;;17.65;100.00;95928.63;1042677;28;20033;-73
2023/06/23 00:29:54;;;;;;;3.92;1.77;;;;;;;17.61;100.00;95913.63;1038622;28;20507;-73
2023/06/23 00:30:24;;;;;;;4.22;1.40;;;;;;;17.66;100.00;95916.94;1037998;28;20032;-73
2023/06/23 00:30:55;;;;;;;1.90;1.50;;;;;;;17.64;100.00;95929.75;1042848;28;20029;-73
2023/06/23 00:31:25;;;;;;;3.40;1.88;;;;;;;17.59;100.00;95921.88;1046393;28;20509;-73
2023/06/23 00:31:56;;;;;;;3.17;1.70;;;;;;;17.60;100.00;95918.13;1046855;28;20032;-73
2023/06/23 00:32:27;;;;;;;3.13;1.58;;;;;;;17.58;100.00;95922.97;1042649;28;20052;-72
2023/06/23 00:32:57;;;;;;;5.45;1.75;;;;;;;17.52;100.00;95916.22;1042667;28;20029;-72
2023/06/23 00:33:28;;;;;;;2.92;1.30;;;;;;;17.56;100.00;95919.84;1038489;28;20037;-72
2023/06/23 00:33:58;;;;;;;3.88;1.48;;;;;;;17.56;100.00;95921.72;1042968;28;20021;-74
2023/06/23 00:34:29;;;;;;;3.95;1.90;;;;;;;17.55;100.00;95918.28;1042604;28;20666;-73
2023/06/23 00:34:59;;;;;;;3.72;1.80;;;;;;;17.60;100.00;95923.44;1038554;28;20049;-73
2023/06/23 00:35:30;;;;;;;3.75;1.80;;;;;;;17.54;100.00;95911.41;1030361;28;20066;-74
2023/06/23 00:36:00;;;;;;;4.32;1.98;;;;;;;17.51;100.00;95909.34;1038394;28;20026;-73
2023/06/23 00:36:31;;;;;;;2.45;1.70;;;;;;;17.45;100.00;95902.59;1038614;28;20034;-74
2023/06/23 00:37:01;;;;;;;3.75;1.40;;;;;;;17.51;100.00;95917.31;1040443;28;20025;-73
2023/06/23 00:37:32;;;;;;;1.85;1.40;;;;;;;17.50;100.00;95905.13;1042719;28;20037;-74
2023/06/23 00:38:03;;;;;;;2.75;1.63;;;;;;;17.49;100.00;95906.22;1042709;28;20069;-74
2023/06/23 00:38:34;;;;;;;2.50;1.63;;;;;;;17.53;100.00;95917.00;1038671;28;20032;-73
2023/06/23 00:39:04;;;;;;;3.78;1.58;;;;;;;17.47;100.00;95907.59;1038798;28;20037;-73
2023/06/23 00:39:35;;;;;;;4.05;1.80;;;;;;;17.51;100.00;95904.06;1030561;28;20046;-73
2023/06/23 00:40:12;;;;;;;5.85;1.95;;;;;;;17.49;100.00;95908.88;1031009;28;20030;-74
2023/06/23 00:40:43;;;;;;;1.95;1.60;;;;;;;17.52;100.00;95913.56;1031347;28;20038;-75
2023/06/23 00:41:13;;;;;;;6.70;1.65;;;;;;;17.52;100.00;95921.53;1035098;28;20049;-72
2023/06/23 00:41:44;;;;;;;2.22;1.33;;;;;;;17.55;100.00;95904.22;1034672;28;20029;-73
2023/06/23 00:42:14;;;;;;;3.78;1.98;;;;;;;17.58;100.00;95915.03;1037485;28;20052;-73
2023/06/23 00:42:54;;;;;;;2.55;1.80;;;;;;;17.52;100.00;95907.47;1042803;28;20025;-72
2023/06/23 00:43:24;;;;;;;4.32;1.50;;;;;;;17.55;100.00;95915.63;1046793;28;20540;-74
2023/06/23 00:43:59;;;;;;;3.58;1.58;;;;;;;17.56;100.00;95914.53;1042629;28;20036;-73
2023/06/23 00:44:29;;;;;;;3.38;1.67;;;;;;;17.55;100.00;95925.47;1044594;28;20514;-72
2023/06/23 00:44:59;;;;;;;4.25;1.75;;;;;;;17.54;100.00;95919.38;1039345;28;20068;-73
2023/06/23 00:45:30;;;;;;;5.53;2.03;;;;;;;17.42;100.00;95900.56;1046844;28;20028;-72
2023/06/23 00:46:14;;;;;;;4.35;1.70;;;;;;;17.60;100.00;95920.00;1046909;28;20062;-71
2023/06/23 00:46:44;;;;;;;3.20;1.75;;;;;;;17.59;100.00;95921.09;1038597;28;20025;-73
2023/06/23 00:47:18;;;;;;;3.42;1.73;;;;;;;17.56;100.00;95917.19;1034508;28;20369;-73
2023/06/23 00:47:48;;;;;;;2.80;1.80;;;;;;;17.57;100.00;95912.66;1034648;28;20044;-74
2023/06/23 00:48:19;;;;;;;6.00;1.60;;;;;;;17.56;100.00;95917.19;1042755;28;20502;-72
2023/06/23 00:48:49;;;;;;;4.82;1.90;;;;;;;17.51;100.00;95914.66;1041535;28;20545;-73
2023/06/23 00:49:20;;;;;;;4.53;1.65;;;;;;;17.56;100.00;95927.00;1042810;28;20070;-74
2023/06/23 00:49:50;;;;;;;3.67;1.50;;;;;;;17.56;100.00;95913.75;1042875;28;20033;-75
2023/06/23 00:50:22;;;;;;;4.40;2.00;;;;;;;17.56;100.00;95919.06;1034561;28;20029;-71
2023/06/23 00:50:52;;;;;;;4.70;1.90;;;;;;;17.54;100.00;95919.38;1039050;28;20399;-73
2023/06/23 00:51:23;;;;;;;3.08;1.40;;;;;;;17.54;100.00;95921.22;1038403;28;20020;-72
2023/06/23 00:51:54;;;;;;;4.47;1.90;;;;;;;17.47;100.00;95919.00;1030636;28;20034;-72
2023/06/23 00:52:24;;;;;;;3.88;1.73;;;;;;;17.50;100.00;95921.03;1036619;28;20022;-73
2023/06/23 00:52:55;;;;;;;2.65;1.77;;;;;;;17.49;100.00;95927.44;1038591;28;20053;-72
2023/06/23 00:53:25;;;;;;;4.55;1.38;;;;;;;17.45;100.00;95910.56;1038718;28;20029;-74
2023/06/23 00:53:56;;;;;;;4.00;1.90;;;;;;;17.49;100.00;95922.13;1038463;28;20390;-73
2023/06/23 00:54:28;;;;;;;2.72;1.50;;;;;;;17.52;100.00;95924.19;1042734;28;20037;-73
2023/06/23 00:54:59;;;;;;;3.80;2.10;;;;;;;17.51;100.00;95922.63;1046680;28;20028;-74
2023/06/23 00:55:30;;;;;;;4.38;1.80;;;;;;;17.50;100.00;95926.34;1034890;28;20026;-72
2023/06/23 00:56:00;;;;;;;6.65;2.28;;;;;;;17.47;100.00;95919.00;1042814;28;20048;-72
2023/06/23 00:56:31;;;;;;;2.83;1.80;;;;;;;17.49;100.00;95930.09;1034721;28;20026;-73
2023/06/23 00:57:02;;;;;;;4.65;1.60;;;;;;;17.46;100.00;95914.00;1038619;28;20035;-73
2023/06/23 00:57:33;;;;;;;3.88;1.70;;;;;;;17.45;100.00;95910.56;1037537;28;20044;-73
2023/06/23 00:58:05;;;;;;;3.33;1.42;;;;;;;17.40;100.00;95908.81;1034629;28;20022;-72
2023/06/23 00:58:35;;;;;;;4.10;1.60;;;;;;;17.42;100.00;95916.47;1046992;28;20039;-72
2023/06/23 00:59:06;;;;;;;2.78;1.65;;;;;;;17.48;100.00;95925.09;1048457;28;20086;-73
2023/06/23 00:59:36;;;;;;;5.05;1.95;;;;;;;17.42;100.00;95922.56;1051059;28;20036;-72
2023/06/23 01:00:18;;;;;;;2.05;1.67;;;;;;;17.46;100.00;95925.38;1042730;28;20063;-74
2023/06/23 01:00:50;;;;;;;2.20;1.85;;;;;;;17.44;100.00;95923.03;1042464;28;20128;-72
2023/06/23 01:01:20;;;;;;;2.08;1.50;;;;;;;17.45;100.00;95921.16;1041899;28;20586;-72
2023/06/23 01:01:50;;;;;;;2.53;1.73;;;;;;;17.45;100.00;95931.78;1044539;28;20140;-73
2023/06/23 01:02:21;;;;;;;2.50;1.90;;;;;;;17.45;100.00;95926.47;1042377;28;20417;-72
2023/06/23 01:02:52;;;;;;;4.35;1.70;;;;;;;17.44;100.00;95931.00;1034478;28;20038;-72
2023/06/23 01:03:23;;;;;;;4.88;1.95;;;;;;;17.44;100.00;95931.00;1026406;28;20023;-73
2023/06/23 01:03:57;;;;;;;3.90;1.90;;;;;;;17.42;100.00;95933.16;1034798;28;20033;-74
2023/06/23 01:04:33;;;;;;;3.80;1.70;;;;;;;17.47;100.00;95924.31;1035655;28;20533;-73
2023/06/23 01:05:04;;;;;;;3.05;1.77;;;;;;;17.41;100.00;95922.88;1041382;28;20036;-73
2023/06/23 01:05:36;;;;;;;4.55;1.85;;;;;;;17.41;100.00;95925.53;1026360;28;20384;-73
2023/06/23 01:06:46;;;;;;;3.65;1.63;;;;;;;17.42;100.00;95932.38;1037851;28;20502;-73
2023/06/23 01:07:51;;;;;;;3.60;1.80;;;;;;;17.40;100.00;95934.53;1035737;28;20041;-74
2023/06/23 01:08:30;;;;;;;3.53;1.75;;;;;;;17.37;100.00;95937.78;1042212;28;20651;-73
2023/06/23 01:09:44;;;;;;;3.35;1.85;;;;;;;17.37;100.00;95937.78;1034283;28;20591;-72
2023/06/23 01:10:19;;;;;;;6.57;1.63;;;;;;;17.33;100.00;95939.47;1029139;28;20113;-72
2023/06/23 01:11:22;;;;;;;2.70;1.60;;;;;;;17.22;100.00;95919.59;1026684;28;20026;-72
2023/06/23 01:12:07;;;;;;;2.45;1.65;;;;;;;17.26;100.00;95939.13;1024487;28;20092;-73
2023/06/23 01:12:43;;;;;;;3.05;1.65;;;;;;;17.21;100.00;95921.47;1023554;28;20058;-73
2023/06/23 01:13:34;;;;;;;1.77;1.48;;;;;;;17.23;100.00;95934.41;1036003;28;20434;-72
2023/06/23 01:14:09;;;;;;;2.58;1.50;;;;;;;17.20;100.00;95925.19;1035979;28;20041;-72
2023/06/23 01:14:52;;;;;;;3.45;1.52;;;;;;;17.21;100.00;95926.78;1035320;28;20018;-72
2023/06/23 01:15:27;;;;;;;3.10;1.45;;;;;;;17.25;100.00;95927.72;1043549;28;20064;-72
2023/06/23 01:15:59;;;;;;;2.35;1.63;;;;;;;17.23;100.00;95929.09;1038936;28;20624;-73
2023/06/23 01:16:31;;;;;;;4.97;1.90;;;;;;;17.22;100.00;95930.19;1039306;28;20144;-74
2023/06/23 01:17:09;;;;;;;6.40;1.85;;;;;;;17.23;100.00;95934.41;1035173;28;20045;-73
2023/06/23 01:17:53;;;;;;;3.85;1.80;;;;;;;17.19;100.00;95927.06;1040618;28;20108;-74
2023/06/23 01:18:30;;;;;;;2.92;1.50;;;;;;;17.24;100.00;95931.47;1039069;28;20113;-74
2023/06/23 01:19:04;;;;;;;1.77;1.40;;;;;;;17.25;100.00;95926.94;1038889;28;20037;-73
2023/06/23 01:20:12;;;;;;;4.22;1.70;;;;;;;17.23;100.00;95937.84;1027712;28;20675;-74
2023/06/23 01:20:42;;;;;;;3.25;1.73;;;;;;;17.17;100.00;95918.63;1046259;28;20060;-74
2023/06/23 01:21:16;;;;;;;4.28;1.38;;;;;;;17.17;100.00;95925.81;1041469;28;20108;-74
2023/06/23 01:21:49;;;;;;;3.38;1.70;;;;;;;17.20;100.00;95928.63;1042162;28;20017;-73
2023/06/23 01:22:33;;;;;;;4.55;1.55;;;;;;;17.09;100.00;95908.72;1034994;28;20502;-76
2023/06/23 01:23:07;;;;;;;2.13;1.90;;;;;;;17.20;100.00;95931.28;1043390;28;20025;-73
2023/06/23 01:24:03;;;;;;;5.32;1.80;;;;;;;17.18;100.00;95930.78;1039605;28;20624;-75
2023/06/23 01:25:01;;;;;;;4.13;1.85;;;;;;;17.18;100.00;95932.66;1043441;28;20059;-74
2023/06/23 01:25:54;;;;;;;1.80;1.35;;;;;;;17.15;100.00;95928.75;1046544;28;20024;-74
2023/06/23 01:26:50;;;;;;;3.13;1.77;;;;;;;17.18;100.00;95933.44;1049948;28;20053;-74
2023/06/23 01:27:23;;;;;;;3.75;1.85;;;;;;;17.17;100.00;95929.25;1043310;28;20561;-73
2023/06/23 01:28:29;;;;;;;2.20;1.30;;;;;;;17.11;100.00;95925.13;1039304;28;20023;-75
2023/06/23 01:29:01;;;;;;;4.25;1.75;;;;;;;17.10;100.00;95925.41;1039901;28;20019;-74
2023/06/23 01:29:34;;;;;;;2.60;1.80;;;;;;;17.11;100.00;95933.09;1048491;28;20105;-73
2023/06/23 01:30:06;;;;;;;5.05;1.80;;;;;;;17.14;100.00;95921.88;1048381;28;20027;-73
2023/06/23 01:30:36;;;;;;;2.35;1.63;;;;;;;17.11;100.00;95921.69;1043385;28;20012;-73
2023/06/23 01:31:08;;;;;;;3.03;1.50;;;;;;;17.13;100.00;95925.59;1034677;28;20021;-73
2023/06/23 01:31:44;;;;;;;2.80;2.03;;;;;;;17.19;100.00;95935.00;1043163;28;20044;-73
2023/06/23 01:32:17;;;;;;;2.67;1.45;;;;;;;17.22;100.00;95930.19;1039167;28;20122;-73
2023/06/23 01:32:52;;;;;;;2.50;1.60;;;;;;;17.19;100.00;95916.44;1034941;28;20403;-73
2023/06/23 01:33:30;;;;;;;2.78;1.20;;;;;;;17.27;100.00;95924.75;1039171;28;20597;-72
2023/06/23 01:34:04;;;;;;;2.33;1.50;;;;;;;17.27;100.00;95928.22;1043451;28;20044;-72
2023/06/23 01:34:42;;;;;;;2.17;1.60;;;;;;;17.29;100.00;95931.34;1039124;28;20021;-72
2023/06/23 01:35:18;;;;;;;2.72;1.67;;;;;;;17.31;100.00;95926.53;1036019;28;20080;-73
2023/06/23 01:35:59;;;;;;;3.13;1.45;;;;;;;17.34;100.00;95922.50;1035114;28;20391;-73
2023/06/23 01:36:39;;;;;;;2.45;1.50;;;;;;;17.33;100.00;95920.91;1031157;28;20385;-72
2023/06/23 01:37:23;;;;;;;3.17;1.60;;;;;;;17.33;100.00;95928.88;1038994;28;20037;-73
2023/06/23 01:37:57;;;;;;;2.75;1.30;;;;;;;17.33;100.00;95928.88;1043333;28;20031;-74
2023/06/23 01:38:32;;;;;;;2.67;1.60;;;;;;;17.34;100.00;95931.25;1039341;28;20116;-74
2023/06/23 01:39:03;;;;;;;2.33;1.42;;;;;;;17.32;100.00;95924.66;1030886;28;20034;-74
2023/06/23 01:39:35;;;;;;;2.40;1.45;;;;;;;17.31;100.00;95929.19;1039316;28;20021;-74
2023/06/23 01:40:12;;;;;;;3.08;1.90;;;;;;;17.36;100.00;95933.59;1039218;28;20121;-74
2023/06/23 01:40:43;;;;;;;2.80;1.35;;;;;;;17.35;100.00;95929.38;1039160;28;20029;-73
2023/06/23 01:41:20;;;;;;;1.83;1.33;;;;;;;17.38;100.00;95929.56;1038514;28;20450;-73
2023/06/23 01:41:59;;;;;;;1.90;1.48;;;;;;;17.40;100.00;95929.22;1043454;28;20027;-73
2023/06/23 01:42:30;;;;;;;1.83;1.30;;;;;;;17.36;100.00;95923.75;1043535;28;20044;-73
2023/06/23 01:43:04;;;;;;;2.25;1.20;;;;;;;17.42;100.00;95932.38;1039074;28;20036;-73
2023/06/23 01:43:34;;;;;;;2.90;1.38;;;;;;;17.40;100.00;95929.22;1039223;28;20507;-72
2023/06/23 01:44:07;;;;;;;2.13;1.48;;;;;;;17.37;100.00;95929.84;1047194;28;20016;-73
2023/06/23 01:44:39;;;;;;;2.38;1.50;;;;;;;17.41;100.00;95936.91;1047527;28;20067;-72
2023/06/23 01:45:09;;;;;;;3.33;1.80;;;;;;;17.41;100.00;95933.47;1047540;28;20792;-73
2023/06/23 01:45:40;;;;;;;2.88;1.48;;;;;;;17.40;100.00;95926.59;1046202;28;20024;-73
2023/06/23 01:46:12;;;;;;;4.20;1.58;;;;;;;17.38;100.00;95926.91;1035238;28;20555;-73
2023/06/23 01:46:50;;;;;;;2.55;1.70;;;;;;;17.40;100.00;95935.34;1035238;28;20110;-73
2023/06/23 01:47:23;;;;;;;3.25;1.42;;;;;;;17.42;100.00;95935.03;1047166;28;20080;-73
2023/06/23 01:47:54;;;;;;;16.25;2.30;;;;;;;17.40;100.00;95929.22;1043307;28;20023;-73
2023/06/23 01:48:25;;;;;;;4.43;1.50;;;;;;;17.43;100.00;95931.28;1030907;28;20050;-73
2023/06/23 01:48:57;;;;;;;2.80;1.52;;;;;;;17.44;100.00;95932.88;1035093;28;20014;-74
2023/06/23 01:49:30;;;;;;;2.67;1.40;;;;;;;17.42;100.00;95938.47;1035052;28;20045;-73
2023/06/23 01:50:04;;;;;;;11.98;1.70;;;;;;;17.37;100.00;95933.28;1027095;28;20035;-73
2023/06/23 01:50:35;;;;;;;3.38;1.50;;;;;;;17.38;100.00;95931.41;1036574;28;20029;-74
2023/06/23 01:51:05;;;;;;;3.72;1.65;;;;;;;17.36;100.00;95930.94;1034389;28;20562;-73
2023/06/23 01:51:36;;;;;;;6.40;1.63;;;;;;;17.33;100.00;95932.31;1034921;28;20026;-74
2023/06/23 01:52:07;;;;;;;8.43;1.85;;;;;;;17.34;100.00;95935.78;1042033;28;20739;-73
2023/06/23 01:52:37;;;;;;;6.35;1.52;;;;;;;17.30;100.00;95932.13;1035012;28;20041;-73
2023/06/23 01:53:08;;;;;;;3.17;1.30;;;;;;;17.31;100.00;95925.75;1035102;28;20554;-73
2023/06/23 01:53:39;;;;;;;4.07;1.52;;;;;;;17.34;100.00;95930.47;1031214;28;20597;-72
2023/06/23 01:54:09;;;;;;;1.77;1.25;;;;;;;17.31;100.00;95934.50;1031205;28;20026;-72
2023/06/23 01:54:40;;;;;;;3.17;1.35;;;;;;;17.32;100.00;95930.75;1031308;28;20081;-74
2023/06/23 01:55:11;;;;;;;4.43;1.60;;;;;;;17.28;100.00;95929.78;1035343;28;20057;-76
2023/06/23 01:55:41;;;;;;;5.60;1.63;;;;;;;17.27;100.00;95930.88;1039063;28;20028;-72
2023/06/23 01:56:12;;;;;;;3.15;1.23;;;;;;;17.22;100.00;95923.03;1039652;28;20080;-73
2023/06/23 01:56:42;;;;;;;1.77;1.42;;;;;;;17.27;100.00;95924.75;1035300;28;20077;-74
2023/06/23 01:57:14;;;;;;;2.05;1.45;;;;;;;17.24;100.00;95922.75;1035015;28;20541;-73
2023/06/23 01:57:45;;;;;;;2.72;1.50;;;;;;;17.17;100.00;95917.84;1039387;28;20561;-74
2023/06/23 01:58:15;;;;;;;3.70;1.35;;;;;;;17.17;100.00;95915.19;1039273;28;20025;-73
2023/06/23 01:58:46;;;;;;;4.22;1.50;;;;;;;17.20;100.00;95920.69;1039188;28;20018;-74
2023/06/23 01:59:16;;;;;;;4.15;1.48;;;;;;;17.15;100.00;95914.69;1028053;28;20034;-73
2023/06/23 01:59:47;;;;;;;3.13;1.55;;;;;;;17.17;100.00;95915.97;1034975;28;20025;-73
2023/06/23 02:00:21;;;;;;;2.83;1.77;;;;;;;17.14;100.00;95921.88;1039321;28;20072;-74
2023/06/23 02:00:52;;;;;;;4.28;1.30;;;;;;;17.17;100.00;95921.28;1037308;28;20488;-74
2023/06/23 02:01:22;;;;;;;1.98;1.40;;;;;;;17.13;100.00;95915.00;1042773;28;20017;-75
2023/06/23 02:01:53;;;;;;;1.85;1.27;;;;;;;17.12;100.00;95921.38;1039204;28;20022;-73
2023/06/23 02:02:24;;;;;;;4.70;1.20;;;;;;;17.10;100.00;95917.44;1035584;28;20022;-74
2023/06/23 02:02:54;;;;;;;2.70;1.40;;;;;;;17.09;100.00;95918.53;1035258;28;20040;-75
2023/06/23 02:03:26;;;;;;;1.95;1.10;;;;;;;17.13;100.00;95924.81;1039390;28;20446;-71
2023/06/23 02:03:57;;;;;;;2.00;1.45;;;;;;;17.11;100.00;95933.09;1035084;28;20020;-74
2023/06/23 02:04:28;;;;;;;2.35;1.40;;;;;;;17.08;100.00;95931.03;1038684;28;20358;-73
2023/06/23 02:04:58;;;;;;;3.88;1.40;;;;;;;17.14;100.00;95937.78;1043463;28;20020;-74
2023/06/23 02:05:29;;;;;;;3.60;1.30;;;;;;;17.10;100.00;95936.81;1035148;28;20014;-73
2023/06/23 02:05:59;;;;;;;3.03;1.55;;;;;;;17.16;100.00;95940.91;1035166;28;20571;-73
2023/06/23 02:06:30;;;;;;;2.92;1.60;;;;;;;17.15;100.00;95938.56;1035347;28;20096;-74
2023/06/23 02:07:00;;;;;;;2.47;1.40;;;;;;;17.15;100.00;95944.66;1047690;28;20019;-72
2023/06/23 02:07:31;;;;;;;4.03;1.50;;;;;;;17.15;100.00;95938.56;1039086;28;20565;-73
2023/06/23 02:08:01;;;;;;;4.43;1.30;;;;;;;17.12;100.00;95933.88;1039395;28;20104;-72
2023/06/23 02:08:33;;;;;;;2.53;1.40;;;;;;;17.11;100.00;95941.03;1043436;28;20545;-73
2023/06/23 02:09:05;;;;;;;2.13;1.30;;;;;;;17.13;100.00;95935.41;1039484;28;20048;-72
2023/06/23 02:09:36;;;;;;;1.80;1.40;;;;;;;17.14;100.00;95948.41;1034633;28;20034;-72
2023/06/23 02:10:06;;;;;;;3.63;1.60;;;;;;;17.14;100.00;95945.75;1038979;28;20029;-73
2023/06/23 02:10:37;;;;;;;2.38;1.23;;;;;;;17.11;100.00;95945.56;1035411;28;20030;-74
2023/06/23 02:11:07;;;;;;;1.83;1.27;;;;;;;17.13;100.00;95954.75;1034910;28;20034;-74
2023/06/23 02:11:38;;;;;;;3.45;1.40;;;;;;;17.17;100.00;95958.41;1039248;28;20067;-74
2023/06/23 02:12:08;;;;;;;1.70;1.10;;;;;;;17.12;100.00;95950.56;1039242;28;20029;-73
2023/06/23 02:12:39;;;;;;;2.67;1.30;;;;;;;17.12;100.00;95953.19;1036298;28;20021;-73
2023/06/23 02:13:11;;;;;;;1.17;1.02;;;;;;;17.12;100.00;95955.84;1047540;28;20113;-73
2023/06/23 02:13:42;;;;;;;1.90;1.30;;;;;;;17.11;100.00;95958.81;1043178;28;20098;-72
2023/06/23 02:14:12;;;;;;;2.78;1.30;;;;;;;17.17;100.00;95957.63;1034904;28;20048;-75
2023/06/23 02:14:43;;;;;;;2.88;1.50;;;;;;;17.16;100.00;95959.47;1035036;28;20029;-74
2023/06/23 02:15:14;;;;;;;3.08;1.40;;;;;;;17.11;100.00;95943.69;1043483;28;20566;-73
2023/06/23 02:15:45;;;;;;;2.03;1.60;;;;;;;17.17;100.00;95958.41;1047546;28;20054;-73
2023/06/23 02:16:15;;;;;;;2.00;1.30;;;;;;;17.14;100.00;95951.03;1042108;28;20060;-73
2023/06/23 02:16:46;;;;;;;1.60;1.20;;;;;;;17.15;100.00;95957.91;1043421;28;20024;-73
2023/06/23 02:17:17;;;;;;;2.65;1.58;;;;;;;17.10;100.00;95952.72;1039318;28;20022;-73
2023/06/23 02:17:47;;;;;;;2.78;1.40;;;;;;;17.10;100.00;95960.69;1038889;28;20091;-73
2023/06/23 02:18:18;;;;;;;4.93;1.50;;;;;;;17.09;100.00;95947.72;1047314;28;20028;-74
2023/06/23 02:18:53;;;;;;;1.73;1.20;;;;;;;17.07;100.00;95953.31;1047471;28;20425;-73
2023/06/23 02:19:24;;;;;;;2.33;1.30;;;;;;;17.09;100.00;95945.84;1035028;28;20455;-74
2023/06/23 02:19:55;;;;;;;3.63;1.50;;;;;;;17.12;100.00;95947.13;1035002;28;20032;-72
2023/06/23 02:20:26;;;;;;;2.17;1.63;;;;;;;17.11;100.00;95956.16;1039165;28;20037;-72
2023/06/23 02:20:56;;;;;;;3.50;1.42;;;;;;;17.09;100.00;95961.75;1043345;28;20052;-71
2023/06/23 02:21:27;;;;;;;2.25;1.33;;;;;;;17.09;100.00;95967.06;1038832;28;20030;-73
2023/06/23 02:21:57;;;;;;;2.10;1.38;;;;;;;17.11;100.00;95964.91;1030549;28;20022;-73
2023/06/23 02:22:28;;;;;;;3.60;0.95;;;;;;;17.05;100.00;95950.19;1030673;28;20054;-71
2023/06/23 02:22:58;;;;;;;2.20;1.20;;;;;;;17.08;100.00;95960.19;1039366;28;20257;-72
2023/06/23 02:23:29;;;;;;;2.20;1.48;;;;;;;17.11;100.00;95966.78;1044985;28;20035;-72
2023/06/23 02:24:02;;;;;;;2.45;1.20;;;;;;;17.11;100.00;95970.19;1043572;28;20556;-74
2023/06/23 02:24:33;;;;;;;3.13;1.10;;;;;;;17.10;100.00;95973.94;1031424;28;20026;-73
2023/06/23 02:25:05;;;;;;;2.13;1.35;;;;;;;17.06;100.00;95966.88;1033804;28;20018;-71
2023/06/23 02:25:35;;;;;;;2.47;1.60;;;;;;;17.11;100.00;95978.16;1047699;28;20660;-74
2023/06/23 02:26:06;;;;;;;2.88;1.27;;;;;;;17.09;100.00;95968.94;1043520;28;20036;-72
2023/06/23 02:26:37;;;;;;;2.78;1.48;;;;;;;17.09;100.00;95972.34;1043621;28;20080;-72
2023/06/23 02:27:08;;;;;;;2.40;1.35;;;;;;;17.04;100.00;95964.53;1035328;28;20022;-72
2023/06/23 02:27:41;;;;;;;3.08;1.50;;;;;;;17.09;100.00;95972.34;1039472;28;20105;-73
2023/06/23 02:28:12;;;;;;;2.30;1.40;;;;;;;17.07;100.00;95974.53;1039798;28;20044;-73
2023/06/23 02:28:49;;;;;;;1.60;1.50;;;;;;;17.06;100.00;95980.91;1046530;28;20592;-73
2023/06/23 02:29:20;;;;;;;1.45;1.00;;;;;;;17.09;100.00;95982.97;1047705;28;20056;-74
2023/06/23 02:29:50;;;;;;;3.13;1.50;;;;;;;17.08;100.00;95977.97;1039534;28;20030;-73
2023/06/23 02:30:21;;;;;;;1.35;1.02;;;;;;;17.09;100.00;95988.25;1038298;28;20026;-72
2023/06/23 02:30:51;;;;;;;2.47;1.30;;;;;;;17.10;100.00;95973.94;1035153;28;20084;-73
2023/06/23 02:31:22;;;;;;;2.30;1.33;;;;;;;17.11;100.00;95983.47;1039191;28;20021;-72
2023/06/23 02:31:53;;;;;;;4.03;1.38;;;;;;;17.11;100.00;95980.81;1039496;28;20030;-73
2023/06/23 02:32:25;;;;;;;2.53;1.65;;;;;;;17.10;100.00;95976.59;1031390;28;20030;-72
2023/06/23 02:32:56;;;;;;;2.40;1.58;;;;;;;17.13;100.00;95981.28;1039517;28;20419;-74
2023/06/23 02:33:26;;;;;;;2.30;1.48;;;;;;;17.07;100.00;95979.84;1035849;28;20030;-73